createdAt,value
2017-07-29T00:01:24.495Z,18.20
2017-07-29T00:03:51.957Z,18.20
2017-07-29T00:06:19.381Z,18.20
2017-07-29T00:08:46.821Z,18.20
2017-07-29T00:11:15.033Z,18.20
2017-07-29T00:13:42.458Z,18.10
2017-07-29T00:16:09.872Z,18.20
2017-07-29T00:18:37.313Z,18.20
2017-07-29T00:21:04.746Z,18.20
2017-07-29T00:23:32.161Z,18.30
2017-07-29T00:26:00.381Z,18.30
2017-07-29T00:28:27.811Z,18.30
2017-07-29T00:30:55.235Z,18.20
2017-07-29T00:33:22.648Z,18.20
2017-07-29T00:35:50.092Z,18.20
2017-07-29T00:38:17.504Z,18.20
2017-07-29T00:40:45.693Z,18.10
2017-07-29T00:43:13.884Z,18.10
2017-07-29T00:45:41.304Z,18.10
2017-07-29T00:48:08.716Z,18.20
2017-07-29T00:50:36.149Z,18.20
2017-07-29T00:53:03.572Z,18.20
2017-07-29T00:55:31.002Z,18.20
2017-07-29T00:57:58.432Z,18.10
2017-07-29T01:00:25.848Z,18.10
2017-07-29T01:02:54.039Z,18.10
2017-07-29T01:05:21.461Z,18.10
2017-07-29T01:07:48.888Z,18.10
2017-07-29T01:10:16.318Z,18.10
2017-07-29T01:12:43.793Z,18.10
2017-07-29T01:15:11.232Z,18.10
2017-07-29T01:17:38.656Z,18.10
2017-07-29T01:20:06.836Z,18.10
2017-07-29T01:22:35.020Z,18.10
2017-07-29T01:25:02.440Z,18.10
2017-07-29T01:27:29.864Z,18.10
2017-07-29T01:29:57.281Z,18.20
2017-07-29T01:32:24.714Z,18.20
2017-07-29T01:34:52.136Z,18.20
2017-07-29T01:37:19.556Z,18.20
2017-07-29T01:39:46.986Z,18.20
2017-07-29T01:42:15.179Z,18.10
2017-07-29T01:44:42.617Z,18.10
2017-07-29T01:47:10.799Z,18.20
2017-07-29T01:49:38.225Z,18.10
2017-07-29T01:52:05.684Z,18.20
2017-07-29T01:54:33.107Z,18.10
2017-07-29T01:57:00.512Z,18.00
2017-07-29T01:59:28.708Z,17.90
2017-07-29T02:01:56.120Z,17.90
2017-07-29T02:04:23.540Z,17.90
2017-07-29T02:06:50.968Z,17.90
2017-07-29T02:09:18.403Z,17.90
2017-07-29T02:11:46.602Z,17.90
2017-07-29T02:14:14.016Z,17.90
2017-07-29T02:16:41.448Z,17.90
2017-07-29T02:19:08.855Z,17.90
2017-07-29T02:21:37.060Z,17.90
2017-07-29T02:24:04.473Z,17.90
2017-07-29T02:26:32.661Z,17.80
2017-07-29T02:29:00.845Z,17.80
2017-07-29T02:31:28.387Z,17.80
2017-07-29T02:33:56.563Z,17.90
2017-07-29T02:36:24.745Z,17.80
2017-07-29T02:38:52.176Z,17.80
2017-07-29T02:41:20.380Z,17.80
2017-07-29T02:43:47.813Z,17.80
2017-07-29T02:46:16.016Z,17.80
2017-07-29T02:48:43.440Z,17.80
2017-07-29T02:51:11.627Z,17.70
2017-07-29T02:53:39.047Z,17.70
2017-07-29T02:56:06.488Z,17.80
2017-07-29T02:58:33.900Z,17.80
2017-07-29T03:01:01.320Z,17.70
2017-07-29T03:03:28.745Z,17.70
2017-07-29T03:05:56.177Z,17.70
2017-07-29T03:08:23.612Z,17.70
2017-07-29T03:10:51.792Z,17.80
2017-07-29T03:13:19.229Z,17.70
2017-07-29T03:15:46.638Z,17.80
2017-07-29T03:18:14.063Z,17.80
2017-07-29T03:20:41.485Z,17.70
2017-07-29T03:23:08.909Z,17.70
2017-07-29T03:25:36.328Z,17.80
2017-07-29T03:28:03.751Z,17.80
2017-07-29T03:30:31.173Z,17.80
2017-07-29T03:32:58.606Z,17.80
2017-07-29T03:35:26.027Z,17.80
2017-07-29T03:37:54.217Z,17.70
2017-07-29T03:40:22.399Z,17.70
2017-07-29T03:42:49.824Z,17.70
2017-07-29T03:45:17.280Z,17.80
2017-07-29T03:47:44.684Z,17.70
2017-07-29T03:50:12.104Z,17.80
2017-07-29T03:52:40.292Z,17.80
2017-07-29T03:55:07.722Z,17.80
2017-07-29T03:57:35.137Z,17.80
2017-07-29T04:00:02.555Z,17.80
2017-07-29T04:02:29.987Z,17.80
2017-07-29T04:04:57.401Z,17.80
2017-07-29T04:07:24.845Z,17.80
2017-07-29T04:09:52.264Z,17.80
2017-07-29T04:12:20.448Z,17.80
2017-07-29T04:14:47.860Z,17.70
2017-07-29T04:17:15.275Z,17.80
2017-07-29T04:19:42.709Z,17.80
2017-07-29T04:22:10.891Z,17.70
2017-07-29T04:24:38.329Z,17.70
2017-07-29T04:27:06.533Z,17.60
2017-07-29T04:29:33.947Z,17.60
2017-07-29T04:32:01.372Z,17.70
2017-07-29T04:34:28.788Z,17.60
2017-07-29T04:36:56.216Z,17.60
2017-07-29T04:39:23.640Z,17.60
2017-07-29T04:41:51.075Z,17.60
2017-07-29T04:44:18.476Z,17.70
2017-07-29T04:46:45.912Z,17.80
2017-07-29T04:49:13.327Z,17.80
2017-07-29T04:51:40.744Z,17.70
2017-07-29T04:54:08.160Z,17.80
2017-07-29T04:56:35.580Z,17.90
2017-07-29T04:59:03.766Z,17.90
2017-07-29T05:01:31.179Z,17.90
2017-07-29T05:03:58.609Z,17.90
2017-07-29T05:06:26.032Z,18.00
2017-07-29T05:08:53.457Z,17.90
2017-07-29T05:11:21.654Z,17.90
2017-07-29T05:13:49.069Z,17.90
2017-07-29T05:16:16.496Z,18.00
2017-07-29T05:18:43.965Z,17.90
2017-07-29T05:21:11.397Z,18.00
2017-07-29T05:23:38.812Z,18.10
2017-07-29T05:26:07.013Z,18.10
2017-07-29T05:28:34.423Z,18.10
2017-07-29T05:31:01.864Z,18.20
2017-07-29T05:33:29.293Z,18.40
2017-07-29T05:35:56.720Z,18.40
2017-07-29T05:38:24.909Z,18.30
2017-07-29T05:40:52.328Z,18.30
2017-07-29T05:43:20.519Z,18.40
2017-07-29T05:45:48.714Z,18.30
2017-07-29T05:48:16.137Z,18.30
2017-07-29T05:50:44.328Z,18.30
2017-07-29T05:53:11.776Z,18.30
2017-07-29T05:55:39.184Z,18.40
2017-07-29T05:58:06.616Z,18.40
2017-07-29T06:00:34.030Z,18.40
2017-07-29T06:03:02.219Z,18.50
2017-07-29T06:05:30.456Z,18.50
2017-07-29T06:07:57.887Z,18.50
2017-07-29T06:10:25.321Z,18.70
2017-07-29T06:12:52.735Z,18.80
2017-07-29T06:15:20.160Z,18.90
2017-07-29T06:17:47.608Z,19.00
2017-07-29T06:20:15.037Z,19.00
2017-07-29T06:22:42.460Z,19.10
2017-07-29T06:25:09.900Z,19.10
2017-07-29T06:27:37.329Z,19.20
2017-07-29T06:30:04.748Z,19.20
2017-07-29T06:32:32.924Z,19.30
2017-07-29T06:35:01.108Z,19.30
2017-07-29T06:37:28.538Z,19.30
2017-07-29T06:39:55.952Z,19.40
2017-07-29T06:42:23.383Z,19.40
2017-07-29T06:44:50.811Z,19.40
2017-07-29T06:47:18.992Z,19.50
2017-07-29T06:49:47.184Z,19.50
2017-07-29T06:52:15.043Z,19.50
2017-07-29T06:54:42.464Z,19.50
2017-07-29T06:57:09.967Z,19.50
2017-07-29T06:59:37.364Z,19.60
2017-07-29T07:02:04.786Z,19.60
2017-07-29T07:04:32.207Z,19.60
2017-07-29T07:06:59.917Z,19.60
2017-07-29T07:09:27.389Z,19.60
2017-07-29T07:11:54.990Z,19.70
2017-07-29T07:14:23.339Z,19.80
2017-07-29T07:16:50.761Z,19.70
2017-07-29T07:19:18.266Z,19.80
2017-07-29T07:21:46.476Z,20.00
2017-07-29T07:24:13.952Z,20.00
2017-07-29T07:26:41.377Z,20.00
2017-07-29T07:29:08.934Z,20.10
2017-07-29T07:31:37.189Z,20.30
2017-07-29T07:34:05.447Z,20.40
2017-07-29T07:36:32.864Z,20.40
2017-07-29T07:39:00.397Z,20.50
2017-07-29T07:41:27.816Z,20.60
2017-07-29T07:43:55.240Z,20.60
2017-07-29T07:46:22.752Z,20.60
2017-07-29T07:48:50.950Z,20.60
2017-07-29T07:51:18.404Z,20.60
2017-07-29T07:53:45.939Z,20.50
2017-07-29T07:56:14.136Z,20.40
2017-07-29T07:58:41.570Z,20.40
2017-07-29T08:01:09.748Z,20.60
2017-07-29T08:03:37.938Z,20.70
2017-07-29T08:06:05.373Z,20.70
2017-07-29T08:08:33.556Z,20.80
2017-07-29T08:11:01.001Z,20.80
2017-07-29T08:13:29.197Z,20.90
2017-07-29T08:15:56.624Z,20.90
2017-07-29T08:18:24.078Z,21.00
2017-07-29T08:20:51.488Z,21.00
2017-07-29T08:23:18.920Z,21.00
2017-07-29T08:25:46.344Z,21.20
2017-07-29T08:28:14.554Z,21.50
2017-07-29T08:30:41.985Z,21.50
2017-07-29T08:33:10.183Z,21.70
2017-07-29T08:35:37.611Z,21.70
2017-07-29T08:38:05.821Z,21.90
2017-07-29T08:40:33.247Z,21.90
2017-07-29T08:43:01.427Z,21.80
2017-07-29T08:45:28.860Z,21.80
2017-07-29T08:47:57.050Z,21.90
2017-07-29T08:50:24.469Z,21.90
2017-07-29T08:52:51.899Z,22.10
2017-07-29T08:55:19.340Z,22.10
2017-07-29T08:57:46.765Z,22.10
2017-07-29T09:00:14.188Z,22.30
2017-07-29T09:02:41.620Z,22.30
2017-07-29T09:05:09.030Z,22.40
2017-07-29T09:07:37.268Z,22.50
2017-07-29T09:10:04.706Z,22.50
2017-07-29T09:12:32.124Z,22.60
2017-07-29T09:15:00.324Z,22.70
2017-07-29T09:17:27.741Z,22.70
2017-07-29T09:19:55.955Z,22.70
2017-07-29T09:22:23.401Z,22.70
2017-07-29T09:24:50.984Z,22.80
2017-07-29T09:27:18.472Z,22.80
2017-07-29T09:29:45.905Z,22.90
2017-07-29T09:32:13.330Z,23.00
2017-07-29T09:34:40.761Z,23.00
2017-07-29T09:37:08.965Z,23.20
2017-07-29T09:39:36.381Z,23.20
2017-07-29T09:42:04.598Z,23.40
2017-07-29T09:47:01.683Z,23.40
2017-07-29T09:49:29.856Z,23.50
2017-07-29T09:51:58.129Z,23.50
2017-07-29T09:54:26.308Z,23.70
2017-07-29T09:56:54.478Z,23.70
2017-07-29T09:59:22.666Z,23.80
2017-07-29T10:01:50.077Z,23.70
2017-07-29T10:04:17.486Z,23.80
2017-07-29T10:06:44.895Z,23.70
2017-07-29T10:09:12.314Z,23.60
2017-07-29T10:11:39.731Z,23.70
2017-07-29T10:14:07.906Z,23.80
2017-07-29T10:16:36.079Z,23.80
2017-07-29T10:19:04.252Z,23.90
2017-07-29T10:21:32.430Z,24.00
2017-07-29T10:23:59.862Z,23.90
2017-07-29T10:26:27.275Z,24.00
2017-07-29T10:28:54.682Z,24.10
2017-07-29T10:31:22.856Z,24.00
2017-07-29T10:33:51.030Z,24.10
2017-07-29T10:36:19.207Z,24.10
2017-07-29T10:38:47.370Z,24.20
2017-07-29T10:41:15.595Z,24.20
2017-07-29T10:43:42.998Z,24.20
2017-07-29T10:46:10.410Z,24.20
2017-07-29T10:48:37.819Z,24.20
2017-07-29T10:51:05.994Z,24.40
2017-07-29T10:53:34.163Z,24.20
2017-07-29T10:56:02.335Z,24.10
2017-07-29T10:58:31.279Z,24.00
2017-07-29T11:00:59.129Z,24.00
2017-07-29T11:03:26.527Z,24.10
2017-07-29T11:05:53.935Z,24.10
2017-07-29T11:08:21.352Z,23.90
2017-07-29T11:10:49.532Z,24.10
2017-07-29T11:13:17.712Z,24.10
2017-07-29T11:15:45.901Z,24.40
2017-07-29T11:18:13.310Z,24.40
2017-07-29T11:20:40.722Z,24.60
2017-07-29T11:23:08.122Z,24.60
2017-07-29T11:25:35.531Z,24.60
2017-07-29T11:28:03.314Z,24.70
2017-07-29T11:30:30.724Z,24.80
2017-07-29T11:32:58.935Z,24.80
2017-07-29T11:35:26.352Z,24.70
2017-07-29T11:37:54.611Z,24.90
2017-07-29T11:40:22.018Z,24.90
2017-07-29T11:42:49.472Z,24.90
2017-07-29T11:45:16.871Z,25.00
2017-07-29T11:47:44.285Z,25.00
2017-07-29T11:50:11.692Z,25.00
2017-07-29T11:52:39.108Z,25.10
2017-07-29T11:55:07.375Z,25.30
2017-07-29T11:57:34.796Z,25.50
2017-07-29T12:00:02.970Z,25.20
2017-07-29T12:02:31.142Z,25.30
2017-07-29T12:04:59.353Z,25.40
2017-07-29T12:07:26.768Z,25.40
2017-07-29T12:09:54.934Z,25.70
2017-07-29T12:12:23.115Z,25.80
2017-07-29T12:14:51.283Z,26.10
2017-07-29T12:17:19.509Z,26.30
2017-07-29T12:19:46.934Z,26.30
2017-07-29T12:22:15.144Z,25.80
2017-07-29T12:24:42.559Z,25.70
2017-07-29T12:27:10.748Z,25.60
2017-07-29T12:29:38.164Z,25.50
2017-07-29T12:32:05.588Z,25.80
2017-07-29T12:34:33.207Z,26.10
2017-07-29T12:37:00.593Z,26.30
2017-07-29T12:39:28.078Z,26.40
2017-07-29T12:41:55.508Z,26.20
2017-07-29T12:44:22.923Z,26.50
2017-07-29T12:46:51.162Z,27.00
2017-07-29T12:49:18.590Z,27.00
2017-07-29T12:51:45.985Z,27.70
2017-07-29T12:54:13.427Z,29.00
2017-07-29T12:56:41.452Z,29.70
2017-07-29T12:59:09.011Z,30.30
2017-07-29T13:01:37.164Z,29.40
2017-07-29T13:04:05.343Z,29.90
2017-07-29T13:06:33.587Z,30.30
2017-07-29T13:09:00.991Z,30.30
2017-07-29T13:11:28.727Z,31.00
2017-07-29T13:13:56.495Z,31.50
2017-07-29T13:16:23.878Z,31.70
2017-07-29T13:18:52.095Z,30.10
2017-07-29T13:21:19.511Z,29.90
2017-07-29T13:23:46.938Z,29.10
2017-07-29T13:26:15.111Z,28.80
2017-07-29T13:28:43.274Z,29.10
2017-07-29T13:31:11.464Z,29.90
2017-07-29T13:33:39.630Z,30.10
2017-07-29T13:36:07.043Z,30.10
2017-07-29T13:38:34.451Z,31.00
2017-07-29T13:41:02.884Z,32.00
2017-07-29T13:43:30.279Z,31.90
2017-07-29T13:45:58.466Z,31.90
2017-07-29T13:48:25.950Z,31.80
2017-07-29T13:50:53.357Z,31.30
2017-07-29T13:53:21.547Z,31.70
2017-07-29T13:55:49.732Z,32.30
2017-07-29T13:58:17.135Z,32.30
2017-07-29T14:00:44.717Z,31.80
2017-07-29T14:03:12.107Z,31.80
2017-07-29T14:05:39.547Z,31.20
2017-07-29T14:08:07.855Z,28.50
2017-07-29T14:10:35.275Z,28.50
2017-07-29T14:13:03.458Z,27.10
2017-07-29T14:15:30.877Z,27.10
2017-07-29T14:17:58.283Z,26.90
2017-07-29T14:20:25.687Z,26.70
2017-07-29T14:22:53.104Z,27.10
2017-07-29T14:25:20.567Z,27.50
2017-07-29T14:27:47.987Z,27.80
2017-07-29T14:30:16.171Z,27.90
2017-07-29T14:32:43.586Z,27.90
2017-07-29T14:35:10.994Z,27.40
2017-07-29T14:37:38.406Z,27.00
2017-07-29T14:40:05.824Z,28.00
2017-07-29T14:42:33.242Z,28.70
2017-07-29T14:45:00.657Z,28.90
2017-07-29T14:47:28.063Z,28.70
2017-07-29T14:49:55.467Z,28.30
2017-07-29T14:52:22.871Z,28.20
2017-07-29T14:54:50.311Z,27.60
2017-07-29T14:57:17.726Z,27.30
2017-07-29T14:59:45.140Z,27.00
2017-07-29T15:02:12.552Z,26.90
2017-07-29T15:04:39.954Z,26.70
2017-07-29T15:07:07.386Z,26.70
2017-07-29T15:09:34.791Z,26.70
2017-07-29T15:12:02.200Z,26.60
2017-07-29T15:14:29.628Z,26.40
2017-07-29T15:16:57.039Z,26.30
2017-07-29T15:19:24.446Z,26.10
2017-07-29T15:21:52.631Z,26.50
2017-07-29T15:24:20.804Z,26.80
2017-07-29T15:26:49.032Z,26.90
2017-07-29T15:29:16.428Z,26.90
2017-07-29T15:31:43.854Z,27.10
2017-07-29T15:34:11.277Z,27.10
2017-07-29T15:36:38.691Z,26.70
2017-07-29T15:39:06.880Z,26.70
2017-07-29T15:41:34.287Z,26.60
2017-07-29T15:44:01.703Z,26.70
2017-07-29T15:46:29.130Z,26.60
2017-07-29T15:48:57.304Z,27.00
2017-07-29T15:51:25.487Z,27.20
2017-07-29T15:53:52.903Z,27.20
2017-07-29T15:56:20.307Z,27.10
2017-07-29T15:58:47.723Z,26.80
2017-07-29T16:01:15.894Z,26.50
2017-07-29T16:03:43.306Z,26.50
2017-07-29T16:06:11.174Z,26.50
2017-07-29T16:08:38.575Z,26.70
2017-07-29T16:11:05.987Z,26.70
2017-07-29T16:13:33.397Z,26.70
2017-07-29T16:16:01.570Z,26.90
2017-07-29T16:18:29.757Z,26.60
2017-07-29T16:20:57.267Z,26.70
2017-07-29T16:23:24.699Z,26.50
2017-07-29T16:25:52.102Z,26.50
2017-07-29T16:28:20.286Z,25.90
2017-07-29T16:30:48.460Z,25.90
2017-07-29T16:33:16.643Z,25.90
2017-07-29T16:35:45.127Z,25.90
2017-07-29T16:38:13.386Z,26.00
2017-07-29T16:40:41.615Z,26.00
2017-07-29T16:43:09.002Z,26.00
2017-07-29T16:45:37.499Z,25.90
2017-07-29T16:48:05.115Z,26.00
2017-07-29T16:50:32.691Z,25.90
2017-07-29T16:53:00.123Z,25.80
2017-07-29T16:55:27.549Z,25.70
2017-07-29T16:57:54.957Z,25.60
2017-07-29T17:00:22.374Z,25.50
2017-07-29T17:05:26.502Z,25.40
2017-07-29T17:07:53.915Z,25.40
2017-07-29T17:10:22.086Z,25.40
2017-07-29T17:12:50.252Z,25.50
2017-07-29T17:15:18.432Z,25.40
2017-07-29T17:17:46.608Z,25.30
2017-07-29T17:20:14.779Z,25.30
2017-07-29T17:22:42.953Z,25.30
2017-07-29T17:25:11.159Z,25.20
2017-07-29T17:27:38.578Z,25.20
2017-07-29T17:30:06.754Z,25.10
2017-07-29T17:32:35.594Z,25.00
2017-07-29T17:35:03.017Z,24.90
2017-07-29T17:37:30.422Z,24.90
2017-07-29T17:39:57.831Z,24.90
2017-07-29T17:42:25.541Z,24.90
2017-07-29T17:44:52.947Z,24.80
2017-07-29T17:47:20.354Z,24.80
2017-07-29T17:49:47.788Z,24.70
2017-07-29T17:52:15.221Z,24.70
2017-07-29T17:54:43.394Z,24.60
2017-07-29T17:57:10.808Z,24.60
2017-07-29T17:59:38.973Z,24.70
2017-07-29T18:02:06.375Z,24.60
2017-07-29T18:04:33.846Z,24.60
2017-07-29T18:07:01.238Z,24.60
2017-07-29T18:09:29.486Z,24.60
2017-07-29T18:11:56.946Z,24.60
2017-07-29T18:14:24.365Z,24.50
2017-07-29T18:16:51.795Z,24.50
2017-07-29T18:19:19.982Z,24.40
2017-07-29T18:21:47.413Z,24.40
2017-07-29T18:24:14.842Z,24.30
2017-07-29T18:26:42.252Z,24.30
2017-07-29T18:29:09.679Z,24.40
2017-07-29T18:31:37.853Z,24.30
2017-07-29T18:34:06.030Z,24.30
2017-07-29T18:36:34.206Z,24.30
2017-07-29T18:39:02.379Z,24.20
2017-07-29T18:41:30.558Z,24.20
2017-07-29T18:43:58.734Z,24.20
2017-07-29T18:46:26.162Z,24.20
2017-07-29T18:48:53.576Z,24.30
2017-07-29T18:51:20.986Z,24.20
2017-07-29T18:53:49.163Z,24.10
2017-07-29T18:56:16.591Z,24.10
2017-07-29T18:58:44.008Z,24.00
2017-07-29T19:01:11.430Z,24.00
2017-07-29T19:03:39.611Z,24.00
2017-07-29T19:06:07.018Z,24.00
2017-07-29T19:08:34.434Z,23.90
2017-07-29T19:11:02.046Z,23.90
2017-07-29T19:13:29.471Z,23.90
2017-07-29T19:15:56.878Z,23.90
2017-07-29T19:18:25.082Z,23.80
2017-07-29T19:20:52.490Z,23.80
2017-07-29T19:23:19.894Z,23.80
2017-07-29T19:25:47.319Z,23.80
2017-07-29T19:28:15.655Z,23.70
2017-07-29T19:30:43.091Z,23.70
2017-07-29T19:33:10.490Z,23.70
2017-07-29T19:35:38.678Z,23.70
2017-07-29T19:38:06.849Z,23.60
2017-07-29T19:40:35.060Z,23.60
2017-07-29T19:43:02.459Z,23.60
2017-07-29T19:45:29.867Z,23.60
2017-07-29T19:47:57.275Z,23.60
2017-07-29T19:50:25.447Z,23.50
2017-07-29T19:52:52.858Z,23.50
2017-07-29T19:55:20.258Z,23.50
2017-07-29T19:57:47.675Z,23.50
2017-07-29T20:00:15.096Z,23.40
2017-07-29T20:02:42.505Z,23.30
2017-07-29T20:05:09.911Z,23.20
2017-07-29T20:07:37.318Z,23.20
2017-07-29T20:10:04.728Z,23.20
2017-07-29T20:12:32.134Z,23.20
2017-07-29T20:14:59.692Z,23.30
2017-07-29T20:17:27.101Z,23.30
2017-07-29T20:19:54.514Z,23.30
2017-07-29T20:22:22.691Z,23.10
2017-07-29T20:24:50.873Z,23.10
2017-07-29T20:27:19.061Z,23.00
2017-07-29T20:29:46.461Z,23.00
2017-07-29T20:32:13.879Z,23.10
2017-07-29T20:34:41.287Z,23.10
2017-07-29T20:37:08.743Z,23.10
2017-07-29T20:39:36.148Z,23.10
2017-07-29T20:42:03.646Z,23.10
2017-07-29T20:44:31.051Z,23.10
2017-07-29T20:46:58.476Z,23.10
2017-07-29T20:49:26.654Z,23.10
2017-07-29T20:51:54.843Z,23.00
2017-07-29T20:54:22.256Z,23.00
2017-07-29T20:56:49.702Z,22.90
2017-07-29T20:59:17.142Z,23.00
2017-07-29T21:01:44.553Z,22.90
2017-07-29T21:04:11.966Z,22.80
2017-07-29T21:06:39.378Z,22.80
2017-07-29T21:09:06.797Z,22.80
2017-07-29T21:11:35.719Z,22.70
2017-07-29T21:14:03.202Z,22.70
2017-07-29T21:16:30.615Z,22.60
2017-07-29T21:18:58.803Z,22.60
2017-07-29T21:21:26.202Z,22.60
2017-07-29T21:23:53.642Z,22.50
2017-07-29T21:26:21.060Z,22.60
2017-07-29T21:28:49.259Z,22.60
2017-07-29T21:31:16.672Z,22.50
2017-07-29T21:33:44.846Z,22.40
2017-07-29T21:36:13.032Z,22.40
2017-07-29T21:38:41.213Z,22.40
2017-07-29T21:41:08.618Z,22.40
2017-07-29T21:43:36.044Z,22.40
2017-07-29T21:46:03.814Z,22.40
2017-07-29T21:48:31.267Z,22.40
2017-07-29T21:50:58.686Z,22.40
2017-07-29T21:53:26.095Z,22.30
2017-07-29T21:55:53.530Z,22.30
2017-07-29T21:58:20.933Z,22.30
2017-07-29T22:00:49.158Z,22.30
2017-07-29T22:03:16.558Z,22.30
2017-07-29T22:05:43.970Z,22.40
2017-07-29T22:08:11.435Z,22.40
2017-07-29T22:10:38.831Z,22.30
2017-07-29T22:13:07.051Z,22.30
2017-07-29T22:15:34.465Z,22.30
2017-07-29T22:18:02.646Z,22.30
2017-07-29T22:20:30.123Z,22.20
2017-07-29T22:22:57.592Z,22.30
2017-07-29T22:25:25.018Z,22.30
2017-07-29T22:27:52.434Z,22.30
2017-07-29T22:30:19.849Z,22.30
2017-07-29T22:32:47.264Z,22.30
2017-07-29T22:35:14.678Z,22.30
2017-07-29T22:37:42.098Z,22.30
2017-07-29T22:40:09.510Z,22.20
2017-07-29T22:42:36.931Z,22.30
2017-07-29T22:45:04.338Z,22.20
2017-07-29T22:47:32.518Z,22.20
2017-07-29T22:50:01.375Z,22.20
2017-07-29T22:52:28.802Z,22.20
2017-07-29T22:54:56.226Z,22.20
2017-07-29T22:57:24.395Z,22.20
2017-07-29T22:59:52.578Z,22.20
2017-07-29T23:02:20.743Z,22.20
2017-07-29T23:04:48.157Z,22.20
2017-07-29T23:07:15.575Z,22.20
2017-07-29T23:09:42.982Z,22.10
2017-07-29T23:12:10.390Z,22.10
2017-07-29T23:14:37.803Z,22.10
2017-07-29T23:17:05.971Z,21.90
2017-07-29T23:19:34.158Z,21.90
2017-07-29T23:22:02.331Z,21.80
2017-07-29T23:24:30.522Z,21.70
2017-07-29T23:26:57.930Z,21.70
2017-07-29T23:29:25.334Z,21.70
2017-07-29T23:31:52.762Z,21.60
2017-07-29T23:34:20.942Z,21.60
2017-07-29T23:36:49.140Z,21.60
2017-07-29T23:39:16.547Z,21.50
2017-07-29T23:41:43.965Z,21.50
2017-07-29T23:44:11.366Z,21.50
2017-07-29T23:46:39.539Z,21.40
2017-07-29T23:49:07.711Z,21.50
2017-07-29T23:51:35.889Z,21.50
2017-07-29T23:54:04.073Z,21.60
2017-07-29T23:56:32.231Z,21.60
2017-07-29T23:59:00.411Z,21.60
